createdAt,value
2023-02-24T00:00:55.305Z,97847.13
2023-02-24T00:02:04.738Z,97842.59
2023-02-24T00:03:11.151Z,97842.34
2023-02-24T00:04:13.782Z,97832.66
2023-02-24T00:05:16.567Z,97832.41
2023-02-24T00:06:18.473Z,97834.03
2023-02-24T00:07:21.358Z,97825.16
2023-02-24T00:08:23.112Z,97826.78
2023-02-24T00:09:27.720Z,97829.28
2023-02-24T00:10:29.973Z,97835.28
2023-02-24T00:11:33.058Z,97825.72
2023-02-24T00:12:35.026Z,97822.16
2023-02-24T00:13:37.943Z,97821.09
2023-02-24T00:14:41.473Z,97819.16
2023-02-24T00:15:44.222Z,97814.78
2023-02-24T00:16:47.157Z,97813.72
2023-02-24T00:17:51.320Z,97815.34
2023-02-24T00:18:53.147Z,97812.63
2023-02-24T00:19:56.088Z,97811.66
2023-02-24T00:21:03.960Z,97811.56
2023-02-24T00:22:08.529Z,97807.03
2023-02-24T00:23:10.334Z,97808.66
2023-02-24T00:24:13.190Z,97812.91
2023-02-24T00:25:15.105Z,97817.16
2023-02-24T00:26:18.473Z,97810.19
2023-02-24T00:27:20.283Z,97805.81
2023-02-24T00:28:23.051Z,97809.91
2023-02-24T00:29:26.207Z,97811.69
2023-02-24T00:30:30.117Z,97804.72
2023-02-24T00:31:33.596Z,97804.59
2023-02-24T00:32:36.440Z,97800.22
2023-02-24T00:33:41.017Z,97800.22
2023-02-24T00:34:43.340Z,97799.25
2023-02-24T00:35:47.352Z,97806.25
2023-02-24T00:36:49.454Z,97802.69
2023-02-24T00:37:54.374Z,97800.09
2023-02-24T00:38:57.573Z,97790.50
2023-02-24T00:40:00.339Z,97788.72
2023-02-24T00:41:07.997Z,97790.25
2023-02-24T00:42:12.349Z,97785.06
2023-02-24T00:43:14.227Z,97797.91
2023-02-24T00:44:16.973Z,97786.53
2023-02-24T00:45:18.870Z,97789.00
2023-02-24T00:46:25.675Z,97784.50
2023-02-24T00:47:27.454Z,97784.50
2023-02-24T00:48:31.634Z,97783.53
2023-02-24T00:49:42.007Z,97780.00
2023-02-24T00:50:44.934Z,97788.75
2023-02-24T00:51:48.687Z,97786.00
2023-02-24T00:52:52.454Z,97787.78
2023-02-24T00:53:56.936Z,97785.06
2023-02-24T00:54:59.835Z,97784.22
2023-02-24T00:56:07.071Z,97777.28
2023-02-24T00:57:10.240Z,97769.47
2023-02-24T00:58:12.102Z,97779.88
2023-02-24T00:59:16.647Z,97771.22
2023-02-24T01:00:19.813Z,97775.50
2023-02-24T01:01:24.321Z,97773.81
2023-02-24T01:02:26.691Z,97773.81
2023-02-24T01:03:29.733Z,97772.06
2023-02-24T01:04:53.228Z,97767.00
2023-02-24T01:05:56.541Z,97764.41
2023-02-24T01:07:00.217Z,97764.41
2023-02-24T01:08:03.273Z,97767.81
2023-02-24T01:09:08.253Z,97763.56
2023-02-24T01:10:12.544Z,97760.16
2023-02-24T01:11:33.155Z,97762.75
2023-02-24T01:12:38.681Z,97759.34
2023-02-24T01:13:40.542Z,97765.34
2023-02-24T01:14:45.567Z,97766.19
2023-02-24T01:15:48.686Z,97752.38
2023-02-24T01:16:51.595Z,97761.78
2023-02-24T01:17:54.312Z,97756.59
2023-02-24T01:18:56.460Z,97759.19
2023-02-24T01:20:15.922Z,97755.78
2023-02-24T01:21:19.872Z,97758.53
2023-02-24T01:22:23.838Z,97748.94
2023-02-24T01:23:26.027Z,97749.75
2023-02-24T01:24:29.529Z,97753.31
2023-02-24T01:25:31.352Z,97748.13
2023-02-24T01:26:34.336Z,97747.31
2023-02-24T01:27:37.148Z,97744.72
2023-02-24T01:28:40.070Z,97744.72
2023-02-24T01:29:41.869Z,97742.94
2023-02-24T01:30:45.055Z,97742.94
2023-02-24T01:31:49.517Z,97750.72
2023-02-24T01:32:54.099Z,97748.13
2023-02-24T01:33:56.394Z,97740.47
2023-02-24T01:35:00.621Z,97736.91
2023-02-24T01:36:09.413Z,97740.31
2023-02-24T01:37:16.357Z,97732.69
2023-02-24T01:38:23.047Z,97738.56
2023-02-24T01:39:26.168Z,97735.81
2023-02-24T01:40:29.151Z,97728.00
2023-02-24T01:41:31.447Z,97732.25
2023-02-24T01:42:33.321Z,97728.81
2023-02-24T01:43:58.800Z,97738.28
2023-02-24T01:45:06.636Z,97727.19
2023-02-24T01:46:13.487Z,97727.19
2023-02-24T01:47:16.206Z,97729.78
2023-02-24T01:48:21.887Z,97726.38
2023-02-24T01:49:29.418Z,97722.00
2023-02-24T01:50:35.838Z,97726.38
2023-02-24T01:51:41.964Z,97719.53
2023-02-24T01:52:46.964Z,97719.41
2023-02-24T01:53:49.383Z,97722.97
2023-02-24T01:54:56.397Z,97720.34
2023-02-24T01:55:59.345Z,97716.94
2023-02-24T01:57:01.868Z,97721.31
2023-02-24T01:58:07.228Z,97724.03
2023-02-24T01:59:10.084Z,97717.91
2023-02-24T02:00:32.604Z,97719.81
2023-02-24T02:01:40.574Z,97715.56
2023-02-24T02:02:47.396Z,97719.94
2023-02-24T02:03:49.898Z,97711.47
2023-02-24T02:04:57.273Z,97716.53
2023-02-24T02:06:05.229Z,97713.94
2023-02-24T02:07:09.967Z,97709.56
2023-02-24T02:08:14.465Z,97706.13
2023-02-24T02:09:16.513Z,97710.38
2023-02-24T02:10:19.375Z,97705.16
2023-02-24T02:11:22.847Z,97712.81
2023-02-24T02:12:25.006Z,97707.63
2023-02-24T02:13:28.893Z,97706.00
2023-02-24T02:14:31.385Z,97703.25
2023-02-24T02:15:37.912Z,97700.66
2023-02-24T02:16:58.756Z,97703.25
2023-02-24T02:18:06.834Z,97698.91
2023-02-24T02:19:32.026Z,97698.03
2023-02-24T02:21:05.048Z,97701.59
2023-02-24T02:22:17.011Z,97702.72
2023-02-24T02:23:33.895Z,97702.72
2023-02-24T02:24:52.880Z,97697.53
2023-02-24T02:26:09.646Z,97697.53
2023-02-24T02:27:29.633Z,97695.88
2023-02-24T02:28:45.437Z,97690.69
2023-02-24T02:30:24.422Z,97697.53
2023-02-24T02:31:50.787Z,97686.31
2023-02-24T02:33:27.680Z,97682.88
2023-02-24T02:34:38.068Z,97688.22
2023-02-24T02:35:46.388Z,97678.63
2023-02-24T02:36:55.793Z,97682.03
2023-02-24T02:38:03.310Z,97687.25
2023-02-24T02:39:13.009Z,97677.69
2023-02-24T02:40:19.341Z,97678.63
2023-02-24T02:41:28.378Z,97677.69
2023-02-24T02:42:34.125Z,97676.72
2023-02-24T02:43:41.422Z,97681.78
2023-02-24T02:45:05.649Z,97673.97
2023-02-24T02:46:14.903Z,97673.97
2023-02-24T02:47:24.870Z,97673.97
2023-02-24T02:48:31.166Z,97667.81
2023-02-24T02:49:38.821Z,97672.06
2023-02-24T02:50:45.914Z,97668.66
2023-02-24T02:51:52.604Z,97668.66
2023-02-24T02:52:58.371Z,97667.72
2023-02-24T02:54:03.332Z,97662.50
2023-02-24T02:55:08.311Z,97666.88
2023-02-24T02:56:14.181Z,97664.97
2023-02-24T02:57:18.778Z,97665.78
2023-02-24T02:58:26.215Z,97669.19
2023-02-24T02:59:29.921Z,97667.41
2023-02-24T03:00:35.228Z,97665.78
2023-02-24T03:01:39.103Z,97661.41
2023-02-24T03:02:46.414Z,97662.22
2023-02-24T03:03:51.524Z,97660.31
2023-02-24T03:04:59.662Z,97658.66
2023-02-24T03:06:04.119Z,97664.66
2023-02-24T03:07:07.620Z,97665.53
2023-02-24T03:08:11.553Z,97655.13
2023-02-24T03:09:19.437Z,97660.31
2023-02-24T03:10:27.830Z,97654.28
2023-02-24T03:11:32.489Z,97654.28
2023-02-24T03:12:34.397Z,97655.13
2023-02-24T03:13:41.028Z,97651.41
2023-02-24T03:14:50.985Z,97652.38
2023-02-24T03:15:54.726Z,97650.44
2023-02-24T03:16:58.971Z,97650.44
2023-02-24T03:18:10.175Z,97652.09
2023-02-24T03:19:13.849Z,97647.69
2023-02-24T03:20:22.537Z,97647.69
2023-02-24T03:21:29.383Z,97645.94
2023-02-24T03:22:35.417Z,97642.50
2023-02-24T03:23:40.895Z,97644.16
2023-02-24T03:24:44.506Z,97645.81
2023-02-24T03:25:58.688Z,97642.38
2023-02-24T03:27:08.189Z,97639.78
2023-02-24T03:28:16.595Z,97645.94
2023-02-24T03:29:24.312Z,97647.69
2023-02-24T03:30:32.462Z,97651.28
2023-02-24T03:31:41.007Z,97638.41
2023-02-24T03:32:54.952Z,97649.94
2023-02-24T03:34:03.810Z,97647.44
2023-02-24T03:35:11.085Z,97644.19
2023-02-24T03:36:16.086Z,97642.66
2023-02-24T03:37:25.494Z,97647.03
2023-02-24T03:38:30.850Z,97642.00
2023-02-24T03:39:33.213Z,97642.13
2023-02-24T03:40:43.875Z,97643.06
2023-02-24T03:41:56.135Z,97635.41
2023-02-24T03:43:05.373Z,97640.63
2023-02-24T03:44:11.021Z,97629.66
2023-02-24T03:45:16.285Z,97632.28
2023-02-24T03:46:18.581Z,97629.97
2023-02-24T03:47:21.807Z,97636.94
2023-02-24T03:48:25.171Z,97634.34
2023-02-24T03:49:28.264Z,97625.72
2023-02-24T03:50:32.097Z,97629.25
2023-02-24T03:51:39.648Z,97620.66
2023-02-24T03:52:47.386Z,97631.03
2023-02-24T03:54:01.778Z,97622.44
2023-02-24T03:55:21.285Z,97614.78
2023-02-24T03:56:30.180Z,97619.31
2023-02-24T03:57:54.718Z,97616.72
2023-02-24T03:59:25.167Z,97618.75
2023-02-24T04:00:35.274Z,97618.75
2023-02-24T04:01:44.572Z,97612.59
2023-02-24T04:02:51.123Z,97611.78
2023-02-24T04:04:00.316Z,97608.34
2023-02-24T04:05:24.411Z,97608.50
2023-02-24T04:06:35.829Z,97613.56
2023-02-24T04:07:43.965Z,97609.19
2023-02-24T04:08:48.817Z,97615.19
2023-02-24T04:09:58.140Z,97613.41
2023-02-24T04:11:05.185Z,97610.00
2023-02-24T04:12:17.217Z,97614.38
2023-02-24T04:13:28.300Z,97613.81
2023-02-24T04:14:35.908Z,97609.72
2023-02-24T04:15:43.679Z,97607.53
2023-02-24T04:16:54.128Z,97605.50
2023-02-24T04:17:57.666Z,97607.78
2023-02-24T04:19:05.957Z,97606.72
2023-02-24T04:20:13.494Z,97603.13
2023-02-24T04:21:22.723Z,97602.88
2023-02-24T04:22:26.602Z,97592.22
2023-02-24T04:23:33.019Z,97592.75
2023-02-24T04:24:36.338Z,97589.59
2023-02-24T04:25:39.945Z,97588.06
2023-02-24T04:27:02.234Z,97585.06
2023-02-24T04:28:10.057Z,97587.81
2023-02-24T04:29:19.533Z,97587.13
2023-02-24T04:30:23.897Z,97585.59
2023-02-24T04:31:27.611Z,97587.53
2023-02-24T04:32:31.603Z,97586.81
2023-02-24T04:33:33.793Z,97588.47
2023-02-24T04:34:37.530Z,97580.69
2023-02-24T04:35:40.487Z,97571.94
2023-02-24T04:36:49.456Z,97578.78
2023-02-24T04:37:52.528Z,97573.59
2023-02-24T04:38:56.784Z,97571.94
2023-02-24T04:39:58.729Z,97575.22
2023-02-24T04:41:04.430Z,97567.44
2023-02-24T04:42:06.683Z,97573.34
2023-02-24T04:43:09.735Z,97568.25
2023-02-24T04:44:11.701Z,97570.75
2023-02-24T04:45:16.471Z,97569.91
2023-02-24T04:46:18.921Z,97562.97
2023-02-24T04:47:22.277Z,97562.13
2023-02-24T04:48:24.028Z,97559.66
2023-02-24T04:49:27.035Z,97557.75
2023-02-24T04:50:30.718Z,97558.59
2023-02-24T04:51:33.964Z,97557.75
2023-02-24T04:52:35.757Z,97557.75
2023-02-24T04:53:38.803Z,97551.63
2023-02-24T04:54:44.479Z,97547.38
2023-02-24T04:55:49.246Z,97551.63
2023-02-24T04:56:51.781Z,97542.19
2023-02-24T04:57:54.841Z,97546.44
2023-02-24T04:58:57.001Z,97542.88
2023-02-24T04:59:59.828Z,97545.47
2023-02-24T05:01:08.735Z,97530.72
2023-02-24T05:02:13.220Z,97535.09
2023-02-24T05:03:16.769Z,97534.28
2023-02-24T05:04:19.778Z,97535.09
2023-02-24T05:05:25.503Z,97529.09
2023-02-24T05:06:28.378Z,97526.50
2023-02-24T05:07:30.152Z,97524.84
2023-02-24T05:08:33.925Z,97523.06
2023-02-24T05:09:35.984Z,97518.84
2023-02-24T05:10:43.407Z,97521.44
2023-02-24T05:11:49.055Z,97512.69
2023-02-24T05:12:51.004Z,97517.06
2023-02-24T05:13:53.931Z,97517.06
2023-02-24T05:14:55.663Z,97514.47
2023-02-24T05:16:00.036Z,97519.66
2023-02-24T05:17:03.302Z,97512.00
2023-02-24T05:18:07.708Z,97504.22
2023-02-24T05:19:28.488Z,97511.06
2023-02-24T05:20:48.621Z,97507.75
2023-02-24T05:21:51.561Z,97506.13
2023-02-24T05:22:53.519Z,97505.31
2023-02-24T05:23:59.145Z,97504.50
2023-02-24T05:25:01.259Z,97499.31
2023-02-24T05:26:08.562Z,97506.13
2023-02-24T05:27:10.526Z,97501.91
2023-02-24T05:28:13.669Z,97503.53
2023-02-24T05:29:15.426Z,97502.72
2023-02-24T05:30:19.088Z,97504.34
2023-02-24T05:31:40.476Z,97499.31
2023-02-24T05:32:42.798Z,97497.69
2023-02-24T05:33:48.389Z,97498.50
2023-02-24T05:34:51.805Z,97502.06
2023-02-24T05:35:53.608Z,97496.84
2023-02-24T05:36:56.374Z,97500.28
2023-02-24T05:37:59.211Z,97491.53
2023-02-24T05:39:07.774Z,97494.13
2023-02-24T05:40:14.693Z,97501.75
2023-02-24T05:41:19.054Z,97499.16
2023-02-24T05:42:21.947Z,97495.75
2023-02-24T05:43:26.177Z,97495.75
2023-02-24T05:44:28.928Z,97500.13
2023-02-24T05:45:31.505Z,97497.38
2023-02-24T05:46:36.587Z,97502.56
2023-02-24T05:47:40.103Z,97500.81
2023-02-24T05:48:43.882Z,97498.22
2023-02-24T05:49:48.050Z,97498.22
2023-02-24T05:50:52.245Z,97503.41
2023-02-24T05:51:57.461Z,97501.63
2023-02-24T05:52:59.259Z,97506.81
2023-02-24T05:54:04.696Z,97503.28
2023-02-24T05:55:07.295Z,97503.28
2023-02-24T05:56:10.239Z,97492.91
2023-02-24T05:57:16.968Z,97498.09
2023-02-24T05:58:19.778Z,97496.44
2023-02-24T05:59:21.634Z,97496.31
2023-02-24T06:00:25.930Z,97497.94
2023-02-24T06:01:30.221Z,97497.13
2023-02-24T06:02:37.575Z,97493.56
2023-02-24T06:03:41.346Z,97497.81
2023-02-24T06:04:53.792Z,97498.75
2023-02-24T06:05:55.633Z,97494.41
2023-02-24T06:06:58.378Z,97488.38
2023-02-24T06:08:06.214Z,97490.84
2023-02-24T06:09:10.944Z,97490.03
2023-02-24T06:10:15.245Z,97491.66
2023-02-24T06:11:19.229Z,97488.13
2023-02-24T06:12:28.022Z,97488.13
2023-02-24T06:13:29.803Z,97492.34
2023-02-24T06:14:34.128Z,97488.94
2023-02-24T06:15:37.491Z,97485.38
2023-02-24T06:16:43.487Z,97484.56
2023-02-24T06:17:45.407Z,97483.59
2023-02-24T06:18:49.847Z,97480.06
2023-02-24T06:19:54.198Z,97480.06
2023-02-24T06:20:56.025Z,97487.72
2023-02-24T06:22:01.620Z,97475.56
2023-02-24T06:23:05.331Z,97476.38
2023-02-24T06:24:14.393Z,97476.38
2023-02-24T06:25:18.485Z,97477.19
2023-02-24T06:26:21.627Z,97477.06
2023-02-24T06:27:25.454Z,97478.84
2023-02-24T06:28:28.420Z,97482.09
2023-02-24T06:29:30.694Z,97473.50
2023-02-24T06:30:33.554Z,97477.75
2023-02-24T06:31:35.459Z,97475.97
2023-02-24T06:32:38.520Z,97474.88
2023-02-24T06:33:41.013Z,97479.91
2023-02-24T06:34:43.744Z,97478.00
2023-02-24T06:35:45.496Z,97477.06
2023-02-24T06:36:49.030Z,97472.81
2023-02-24T06:37:50.848Z,97476.22
2023-02-24T06:38:54.206Z,97474.47
2023-02-24T06:39:56.197Z,97480.47
2023-02-24T06:40:59.036Z,97474.47
2023-02-24T06:42:03.895Z,97469.25
2023-02-24T06:43:10.102Z,97479.66
2023-02-24T06:44:11.840Z,97471.03
2023-02-24T06:45:15.219Z,97476.22
2023-02-24T06:46:17.478Z,97477.06
2023-02-24T06:47:22.633Z,97479.66
2023-02-24T06:48:24.640Z,97475.41
2023-02-24T06:49:27.722Z,97473.63
2023-02-24T06:50:30.958Z,97469.25
2023-02-24T06:51:33.701Z,97474.47
2023-02-24T06:52:36.873Z,97470.91
2023-02-24T06:53:43.557Z,97470.91
2023-02-24T06:54:48.677Z,97469.94
2023-02-24T06:56:14.845Z,97467.63
2023-02-24T06:57:18.061Z,97474.47
2023-02-24T06:58:24.195Z,97475.28
2023-02-24T06:59:28.751Z,97472.69
2023-02-24T07:00:38.830Z,97470.91
2023-02-24T07:01:45.306Z,97468.31
2023-02-24T07:02:48.248Z,97474.47
2023-02-24T07:04:17.585Z,97475.28
2023-02-24T07:05:24.170Z,97470.38
2023-02-24T07:06:28.536Z,97467.91
2023-02-24T07:07:31.308Z,97466.00
2023-02-24T07:08:33.163Z,97468.59
2023-02-24T07:09:36.450Z,97466.81
2023-02-24T07:10:39.154Z,97466.66
2023-02-24T07:11:46.611Z,97463.94
2023-02-24T07:12:48.565Z,97464.75
2023-02-24T07:13:54.537Z,97455.06
2023-02-24T07:14:57.270Z,97454.09
2023-02-24T07:16:00.217Z,97455.72
2023-02-24T07:17:03.696Z,97458.22
2023-02-24T07:18:07.188Z,97457.25
2023-02-24T07:19:13.923Z,97457.09
2023-02-24T07:20:26.138Z,97456.28
2023-02-24T07:21:30.221Z,97451.91
2023-02-24T07:22:33.062Z,97460.50
2023-02-24T07:23:34.897Z,97457.91
2023-02-24T07:24:40.487Z,97451.75
2023-02-24T07:25:43.391Z,97451.75
2023-02-24T07:26:52.030Z,97444.78
2023-02-24T07:27:53.788Z,97453.38
2023-02-24T07:28:58.066Z,97448.09
2023-02-24T07:29:59.855Z,97443.72
2023-02-24T07:31:08.403Z,97446.84
2023-02-24T07:32:11.707Z,97445.88
2023-02-24T07:33:14.242Z,97443.00
2023-02-24T07:34:23.485Z,97442.06
2023-02-24T07:35:25.681Z,97448.06
2023-02-24T07:36:30.194Z,97445.31
2023-02-24T07:37:34.828Z,97451.34
2023-02-24T07:38:37.241Z,97444.66
2023-02-24T07:39:42.892Z,97435.22
2023-02-24T07:40:46.855Z,97445.88
2023-02-24T07:41:49.993Z,97450.38
2023-02-24T07:42:54.078Z,97447.94
2023-02-24T07:43:59.622Z,97438.66
2023-02-24T07:45:01.497Z,97447.53
2023-02-24T07:46:09.182Z,97441.66
2023-02-24T07:47:11.977Z,97444.38
2023-02-24T07:48:15.635Z,97446.31
2023-02-24T07:49:19.839Z,97437.72
2023-02-24T07:50:23.719Z,97436.19
2023-02-24T07:51:27.368Z,97440.72
2023-02-24T07:52:32.483Z,97436.50
2023-02-24T07:53:34.381Z,97430.47
2023-02-24T07:54:39.275Z,97432.25
2023-02-24T07:55:42.352Z,97428.00
2023-02-24T07:56:48.825Z,97430.59
2023-02-24T07:57:51.704Z,97424.47
2023-02-24T07:58:59.224Z,97426.09
2023-02-24T08:00:16.915Z,97431.31
2023-02-24T08:01:23.750Z,97427.06
2023-02-24T08:02:25.685Z,97417.50
2023-02-24T08:03:30.159Z,97420.78
2023-02-24T08:04:33.445Z,97419.00
2023-02-24T08:05:36.497Z,97416.28
2023-02-24T08:06:46.154Z,97414.50
2023-02-24T08:07:50.495Z,97417.09
2023-02-24T08:08:59.719Z,97415.16
2023-02-24T08:10:14.231Z,97399.59
2023-02-24T08:11:16.399Z,97411.59
2023-02-24T08:12:21.728Z,97404.53
2023-02-24T08:13:23.804Z,97409.72
2023-02-24T08:14:32.710Z,97400.00
2023-02-24T08:15:35.987Z,97403.41
2023-02-24T08:16:40.597Z,97403.25
2023-02-24T08:17:44.101Z,97402.31
2023-02-24T08:18:48.993Z,97397.94
2023-02-24T08:20:12.841Z,97400.38
2023-02-24T08:21:16.607Z,97411.59
2023-02-24T08:22:24.059Z,97404.75
2023-02-24T08:23:26.781Z,97402.97
2023-02-24T08:24:30.016Z,97399.44
2023-02-24T08:25:36.521Z,97403.66
2023-02-24T08:26:45.053Z,97400.94
2023-02-24T08:28:06.708Z,97400.13
2023-02-24T08:29:10.434Z,97401.75
2023-02-24T08:30:23.375Z,97398.19
2023-02-24T08:31:27.898Z,97398.19
2023-02-24T08:32:34.085Z,97399.81
2023-02-24T08:33:37.377Z,97398.75
2023-02-24T08:34:39.510Z,97389.16
2023-02-24T08:35:44.720Z,97387.25
2023-02-24T08:36:55.742Z,97388.88
2023-02-24T08:38:01.693Z,97386.97
2023-02-24T08:39:04.877Z,97389.41
2023-02-24T08:40:29.383Z,97389.25
2023-02-24T08:41:45.876Z,97378.88
2023-02-24T08:42:50.042Z,97392.56
2023-02-24T08:43:52.828Z,97389.13
2023-02-24T08:44:54.807Z,97387.22
2023-02-24T08:45:59.481Z,97386.25
2023-02-24T08:47:05.211Z,97389.53
2023-02-24T08:48:18.294Z,97385.16
2023-02-24T08:49:24.880Z,97376.41
2023-02-24T08:50:31.314Z,97379.66
2023-02-24T08:51:36.369Z,97373.38
2023-02-24T08:52:40.183Z,97373.06
2023-02-24T08:53:43.425Z,97373.78
2023-02-24T08:54:49.222Z,97378.66
2023-02-24T08:55:51.810Z,97366.22
2023-02-24T08:56:56.850Z,97372.91
2023-02-24T08:58:01.660Z,97370.81
2023-02-24T08:59:06.388Z,97374.13
2023-02-24T09:00:10.863Z,97366.16
2023-02-24T09:01:18.991Z,97368.63
2023-02-24T09:02:27.418Z,97377.22
2023-02-24T09:03:30.108Z,97367.81
2023-02-24T09:04:34.509Z,97358.22
2023-02-24T09:05:39.076Z,97366.00
2023-02-24T09:06:44.738Z,97360.81
2023-02-24T09:07:54.524Z,97369.44
2023-02-24T09:09:15.922Z,97364.09
2023-02-24T09:10:20.298Z,97358.75
2023-02-24T09:11:23.305Z,97362.03
2023-02-24T09:12:29.002Z,97354.09
2023-02-24T09:13:33.065Z,97359.97
2023-02-24T09:14:37.528Z,97358.19
2023-02-24T09:15:41.776Z,97351.19
2023-02-24T09:17:02.113Z,97357.22
2023-02-24T09:18:08.319Z,97358.88
2023-02-24T09:19:40.369Z,97357.22
2023-02-24T09:21:16.080Z,97356.53
2023-02-24T09:22:31.374Z,97355.03
2023-02-24T09:23:45.845Z,97353.41
2023-02-24T09:24:50.965Z,97352.59
2023-02-24T09:25:54.334Z,97353.28
2023-02-24T09:26:58.611Z,97354.75
2023-02-24T09:28:08.398Z,97351.88
2023-02-24T09:29:33.064Z,97353.34
2023-02-24T09:30:37.578Z,97351.56
2023-02-24T09:31:55.280Z,97353.19
2023-02-24T09:33:01.240Z,97341.88
2023-02-24T09:34:05.612Z,97348.69
2023-02-24T09:35:07.914Z,97346.75
2023-02-24T09:36:13.735Z,97345.66
2023-02-24T09:37:24.923Z,97344.53
2023-02-24T09:38:57.803Z,97345.34
2023-02-24T09:40:14.628Z,97348.91
2023-02-24T09:41:33.662Z,97334.97
2023-02-24T09:42:46.416Z,97340.97
2023-02-24T09:43:59.844Z,97342.63
2023-02-24T09:45:04.987Z,97334.84
2023-02-24T09:46:14.729Z,97334.84
2023-02-24T09:47:30.948Z,97334.97
2023-02-24T09:48:44.632Z,97338.53
2023-02-24T09:49:56.387Z,97338.53
2023-02-24T09:51:05.194Z,97337.72
2023-02-24T09:52:16.852Z,97340.97
2023-02-24T09:53:19.893Z,97336.59
2023-02-24T09:54:24.436Z,97331.38
2023-02-24T09:55:35.753Z,97336.31
2023-02-24T09:56:42.644Z,97333.56
2023-02-24T09:58:12.036Z,97336.84
2023-02-24T09:59:26.294Z,97334.63
2023-02-24T10:00:33.545Z,97329.09
2023-02-24T10:01:47.861Z,97328.81
2023-02-24T10:03:00.188Z,97323.34
2023-02-24T10:04:20.231Z,97321.22
2023-02-24T10:05:28.760Z,97332.31
2023-02-24T10:06:36.564Z,97319.81
2023-02-24T10:07:41.807Z,97323.75
2023-02-24T10:08:50.725Z,97322.50
2023-02-24T10:10:02.278Z,97320.59
2023-02-24T10:11:08.552Z,97323.72
2023-02-24T10:12:17.209Z,97316.72
2023-02-24T10:13:30.264Z,97308.28
2023-02-24T10:14:43.704Z,97307.28
2023-02-24T10:16:09.267Z,97306.47
2023-02-24T10:17:30.491Z,97304.53
2023-02-24T10:18:37.918Z,97301.78
2023-02-24T10:19:41.580Z,97297.41
2023-02-24T10:20:45.702Z,97298.22
2023-02-24T10:22:02.825Z,97299.03
2023-02-24T10:23:09.738Z,97298.88
2023-02-24T10:24:15.691Z,97292.72
2023-02-24T10:25:36.650Z,97292.41
2023-02-24T10:26:59.531Z,97293.88
2023-02-24T10:28:13.219Z,97293.59
2023-02-24T10:29:23.009Z,97289.84
2023-02-24T10:30:41.056Z,97289.72
2023-02-24T10:31:48.019Z,97284.38
2023-02-24T10:32:53.383Z,97276.91
2023-02-24T10:33:58.706Z,97281.50
2023-02-24T10:35:01.521Z,97278.16
2023-02-24T10:36:11.489Z,97268.59
2023-02-24T10:37:27.624Z,97272.06
2023-02-24T10:38:34.076Z,97261.53
2023-02-24T10:39:36.980Z,97270.34
2023-02-24T10:40:46.763Z,97266.81
2023-02-24T10:41:57.204Z,97255.94
2023-02-24T10:43:10.440Z,97264.72
2023-02-24T10:44:16.420Z,97259.69
2023-02-24T10:45:24.751Z,97256.09
2023-02-24T10:46:41.068Z,97250.91
2023-02-24T10:47:46.387Z,97253.50
2023-02-24T10:49:00.428Z,97250.91
2023-02-24T10:50:05.287Z,97246.84
2023-02-24T10:51:20.092Z,97246.84
2023-02-24T10:52:37.568Z,97246.84
2023-02-24T10:53:39.475Z,97240.81
2023-02-24T10:55:05.105Z,97240.66
2023-02-24T10:56:26.919Z,97238.84
2023-02-24T10:57:42.618Z,97240.00
2023-02-24T10:59:20.487Z,97239.16
2023-02-24T11:00:51.609Z,97229.06
2023-02-24T11:02:01.117Z,97225.78
2023-02-24T11:03:10.436Z,97221.41
2023-02-24T11:04:32.845Z,97224.66
2023-02-24T11:05:44.388Z,97215.06
2023-02-24T11:06:55.480Z,97212.97
2023-02-24T11:08:10.933Z,97207.41
2023-02-24T11:09:29.266Z,97206.31
2023-02-24T11:10:43.018Z,97195.06
2023-02-24T11:12:04.759Z,97200.94
2023-02-24T11:13:25.205Z,97185.47
2023-02-24T11:14:45.693Z,97172.16
2023-02-24T11:16:07.600Z,97172.31
2023-02-24T11:17:20.989Z,97169.88
2023-02-24T11:18:24.798Z,97165.66
2023-02-24T11:19:32.482Z,97167.13
2023-02-24T11:20:48.455Z,97161.88
2023-02-24T11:21:55.688Z,97167.09
2023-02-24T11:22:57.848Z,97170.88
2023-02-24T11:24:03.112Z,97163.19
2023-02-24T11:25:07.524Z,97166.94
2023-02-24T11:26:16.799Z,97167.09
2023-02-24T11:27:21.860Z,97163.16
2023-02-24T11:28:34.132Z,97164.63
2023-02-24T11:29:45.058Z,97164.63
2023-02-24T11:30:54.614Z,97161.22
2023-02-24T11:32:11.636Z,97162.19
2023-02-24T11:33:24.749Z,97163.97
2023-02-24T11:34:33.267Z,97163.00
2023-02-24T11:35:38.708Z,97157.13
2023-02-24T11:36:46.164Z,97157.47
2023-02-24T11:38:00.422Z,97163.19
2023-02-24T11:39:19.267Z,97155.69
2023-02-24T11:40:26.689Z,97142.31
2023-02-24T11:41:31.228Z,97152.94
2023-02-24T11:42:38.906Z,97149.03
2023-02-24T11:43:43.600Z,97152.78
2023-02-24T11:44:53.813Z,97142.47
2023-02-24T11:46:01.185Z,97149.38
2023-02-24T11:47:07.792Z,97144.63
2023-02-24T11:48:15.975Z,97142.50
2023-02-24T11:49:27.300Z,97142.00
2023-02-24T11:50:36.124Z,97148.34
2023-02-24T11:51:38.148Z,97135.78
2023-02-24T11:52:46.913Z,97136.91
2023-02-24T11:53:53.220Z,97143.56
2023-02-24T11:54:58.662Z,97133.94
2023-02-24T11:56:03.136Z,97126.94
2023-02-24T11:57:09.322Z,97126.28
2023-02-24T11:58:17.152Z,97126.28
2023-02-24T11:59:23.258Z,97124.66
2023-02-24T12:00:27.986Z,97118.13
2023-02-24T12:01:33.716Z,97119.91
2023-02-24T12:02:42.003Z,97114.28
2023-02-24T12:03:54.658Z,97104.75
2023-02-24T12:05:00.627Z,97111.06
2023-02-24T12:06:10.892Z,97100.84
2023-02-24T12:07:19.338Z,97101.75
2023-02-24T12:08:26.806Z,97102.00
2023-02-24T12:09:33.074Z,97099.16
2023-02-24T12:10:37.810Z,97098.09
2023-02-24T12:11:46.084Z,97094.59
2023-02-24T12:12:52.793Z,97090.94
2023-02-24T12:14:03.137Z,97100.81
2023-02-24T12:15:15.553Z,97091.00
2023-02-24T12:16:21.315Z,97087.16
2023-02-24T12:17:29.249Z,97087.69
2023-02-24T12:18:35.365Z,97081.53
2023-02-24T12:19:44.578Z,97083.53
2023-02-24T12:20:49.922Z,97081.06
2023-02-24T12:21:53.714Z,97073.13
2023-02-24T12:22:58.386Z,97072.94
2023-02-24T12:24:21.277Z,97069.50
2023-02-24T12:25:27.954Z,97070.88
2023-02-24T12:26:42.585Z,97073.41
2023-02-24T12:27:54.740Z,97079.13
2023-02-24T12:29:20.045Z,97076.50
2023-02-24T12:30:57.638Z,97072.59
2023-02-24T12:32:06.596Z,97073.03
2023-02-24T12:33:31.832Z,97075.28
2023-02-24T12:34:43.376Z,97074.09
2023-02-24T12:35:48.225Z,97073.34
2023-02-24T12:37:07.597Z,97073.56
2023-02-24T12:38:31.776Z,97067.13
2023-02-24T12:39:40.234Z,97065.28
2023-02-24T12:40:51.339Z,97063.06
2023-02-24T12:42:01.198Z,97067.88
2023-02-24T12:43:13.690Z,97067.19
2023-02-24T12:44:24.194Z,97059.09
2023-02-24T12:45:34.150Z,97066.50
2023-02-24T12:46:38.133Z,97065.72
2023-02-24T12:47:48.369Z,97063.97
2023-02-24T12:49:15.552Z,97062.06
2023-02-24T12:50:25.410Z,97072.06
2023-02-24T12:51:30.668Z,97060.16
2023-02-24T12:52:42.740Z,97061.97
2023-02-24T12:53:49.774Z,97061.50
2023-02-24T12:54:56.702Z,97056.66
2023-02-24T12:56:05.039Z,97059.91
2023-02-24T12:57:11.833Z,97057.34
2023-02-24T12:58:18.690Z,97048.38
2023-02-24T12:59:24.367Z,97041.69
2023-02-24T13:00:56.157Z,97048.03
2023-02-24T13:02:01.673Z,97040.88
2023-02-24T13:03:09.500Z,97051.47
2023-02-24T13:04:23.364Z,97041.88
2023-02-24T13:05:31.030Z,97039.25
2023-02-24T13:06:42.890Z,97044.47
2023-02-24T13:07:59.945Z,97048.88
2023-02-24T13:09:08.595Z,97045.59
2023-02-24T13:10:20.283Z,97038.59
2023-02-24T13:11:31.248Z,97035.97
2023-02-24T13:12:37.535Z,97033.06
2023-02-24T13:13:44.805Z,97036.97